createdAt,value
2022-09-30T00:01:20.532Z,97986.22
2022-09-30T00:03:50.828Z,97949.25
2022-09-30T00:06:17.750Z,97942.16
2022-09-30T00:08:44.752Z,97985.22
2022-09-30T00:11:16.572Z,97992.47
2022-09-30T00:13:45.066Z,98018.25
2022-09-30T00:16:14.090Z,98000.69
2022-09-30T00:18:42.156Z,98037.09
2022-09-30T00:21:09.541Z,98036.06
2022-09-30T00:23:38.754Z,98025.19
2022-09-30T00:26:09.666Z,98019.84
2022-09-30T00:28:36.376Z,98028.22
2022-09-30T00:31:08.035Z,98023.78
2022-09-30T00:33:35.726Z,98033.03
2022-09-30T00:36:03.398Z,98043.06
2022-09-30T00:38:30.275Z,98038.34
2022-09-30T00:40:59.819Z,98046.13
2022-09-30T00:43:46.739Z,98044.81
2022-09-30T00:46:24.912Z,98046.34
2022-09-30T00:48:54.334Z,98048.19
2022-09-30T00:51:41.192Z,98059.69
2022-09-30T00:54:12.666Z,98065.59
2022-09-30T00:56:43.348Z,98067.44
2022-09-30T00:59:26.197Z,98056.22
2022-09-30T01:01:54.186Z,98038.53
2022-09-30T01:04:31.514Z,98071.47
2022-09-30T01:07:07.035Z,98070.47
2022-09-30T01:09:36.091Z,98074.31
2022-09-30T01:12:18.892Z,98075.44
2022-09-30T01:14:47.660Z,98088.03
2022-09-30T01:17:22.275Z,98075.84
2022-09-30T01:20:30.498Z,98069.22
2022-09-30T01:23:19.088Z,98093.94
2022-09-30T01:26:15.005Z,98091.25
2022-09-30T01:28:49.868Z,98088.72
2022-09-30T01:31:16.577Z,98090.41
2022-09-30T01:34:17.209Z,98097.94
2022-09-30T01:37:02.334Z,98094.72
2022-09-30T01:39:57.669Z,98103.13
2022-09-30T01:42:26.962Z,98103.13
2022-09-30T01:45:03.738Z,98110.34
2022-09-30T01:47:55.946Z,98104.63
2022-09-30T01:50:41.562Z,98107.97
2022-09-30T01:53:22.673Z,98100.59
2022-09-30T01:56:01.746Z,98092.41
2022-09-30T01:58:40.505Z,98101.53
2022-09-30T02:01:14.746Z,98097.66
2022-09-30T02:03:49.044Z,98109.41
2022-09-30T02:06:45.459Z,98105.72
2022-09-30T02:09:41.456Z,98085.69
2022-09-30T02:12:15.519Z,98109.41
2022-09-30T02:14:47.620Z,98105.47
2022-09-30T02:17:21.971Z,98105.66
2022-09-30T02:19:59.261Z,98103.97
2022-09-30T02:22:31.774Z,98097.44
2022-09-30T02:25:03.573Z,98062.28
2022-09-30T02:27:42.385Z,98101.25
2022-09-30T02:30:12.000Z,98108.41
2022-09-30T02:32:45.686Z,98103.09
2022-09-30T02:35:20.174Z,98101.94
2022-09-30T02:38:12.556Z,98091.25
2022-09-30T02:40:44.879Z,98103.13
2022-09-30T02:43:11.644Z,98104.81
2022-09-30T02:46:17.094Z,98113.19
2022-09-30T02:48:56.065Z,98106.97
2022-09-30T02:51:28.272Z,98099.44
2022-09-30T02:54:19.642Z,98112.44
2022-09-30T02:56:54.402Z,98114.13
2022-09-30T02:59:23.369Z,98120.66
2022-09-30T03:01:50.431Z,98098.78
2022-09-30T03:04:23.429Z,98120.81
2022-09-30T03:06:50.875Z,98109.09
2022-09-30T03:09:17.795Z,98129.38
2022-09-30T03:11:47.858Z,98131.25
2022-09-30T03:14:33.291Z,98139.13
2022-09-30T03:17:39.913Z,98128.53
2022-09-30T03:20:25.020Z,98140.44
2022-09-30T03:23:00.632Z,98143.97
2022-09-30T03:25:49.334Z,98124.91
2022-09-30T03:28:28.051Z,98147.00
2022-09-30T03:31:08.273Z,98154.53
2022-09-30T03:34:15.675Z,98161.59
2022-09-30T03:37:04.426Z,98159.56
2022-09-30T03:39:41.254Z,98168.94
2022-09-30T03:42:22.634Z,98172.81
2022-09-30T03:45:00.625Z,98184.75
2022-09-30T03:47:29.782Z,98171.16
2022-09-30T03:50:01.012Z,98183.72
2022-09-30T03:52:31.317Z,98161.97
2022-09-30T03:55:01.802Z,98184.75
2022-09-30T03:57:29.446Z,98192.41
2022-09-30T04:00:00.045Z,98181.50
2022-09-30T04:02:27.557Z,98183.56
2022-09-30T04:04:54.332Z,98152.13
2022-09-30T04:07:21.115Z,98204.69
2022-09-30T04:09:47.858Z,98189.94
2022-09-30T04:12:14.909Z,98208.03
2022-09-30T04:14:41.613Z,98202.31
2022-09-30T04:17:08.284Z,98204.66
2022-09-30T04:19:40.092Z,98190.91
2022-09-30T04:22:08.182Z,98204.13
2022-09-30T04:24:35.764Z,98209.69
2022-09-30T04:27:03.558Z,98216.75
2022-09-30T04:29:30.229Z,98220.94
2022-09-30T04:31:58.101Z,98230.19
2022-09-30T04:34:26.881Z,98226.66
2022-09-30T04:36:53.928Z,98239.59
2022-09-30T04:39:20.856Z,98230.03
2022-09-30T04:41:47.569Z,98242.22
2022-09-30T04:44:14.378Z,98244.91
2022-09-30T04:46:41.070Z,98226.16
2022-09-30T04:49:09.475Z,98222.94
2022-09-30T04:51:38.585Z,98263.16
2022-09-30T04:54:05.589Z,98245.69
2022-09-30T04:56:32.421Z,98250.94
2022-09-30T04:58:59.161Z,98259.34
2022-09-30T05:01:48.719Z,98264.72
2022-09-30T05:04:17.853Z,98265.09
2022-09-30T05:06:44.481Z,98225.22
2022-09-30T05:09:11.182Z,98266.94
2022-09-30T05:11:42.724Z,98274.63
2022-09-30T05:14:09.698Z,98268.28
2022-09-30T05:16:36.649Z,98282.47
2022-09-30T05:19:04.034Z,98290.41
2022-09-30T05:21:31.782Z,98289.03
2022-09-30T05:23:58.647Z,98281.03
2022-09-30T05:26:25.396Z,98298.59
2022-09-30T05:28:52.146Z,98289.84
2022-09-30T05:31:21.068Z,98289.00
2022-09-30T05:34:01.904Z,98318.16
2022-09-30T05:36:28.768Z,98306.97
2022-09-30T05:38:55.907Z,98319.84
2022-09-30T05:41:23.150Z,98328.75
2022-09-30T05:43:51.206Z,98326.47
2022-09-30T05:46:20.045Z,98337.91
2022-09-30T05:48:47.301Z,98335.72
2022-09-30T05:51:14.411Z,98329.69
2022-09-30T05:53:42.456Z,98319.44
2022-09-30T05:56:10.055Z,98344.09
2022-09-30T05:58:40.777Z,98346.47
2022-09-30T06:01:15.763Z,98362.25
2022-09-30T06:03:44.642Z,98352.19
2022-09-30T06:06:12.053Z,98374.69
2022-09-30T06:08:40.443Z,98369.28
2022-09-30T06:11:13.158Z,98350.84
2022-09-30T06:13:41.232Z,98373.81
2022-09-30T06:16:09.434Z,98375.19
2022-09-30T06:18:36.963Z,98377.88
2022-09-30T06:21:05.178Z,98383.91
2022-09-30T06:23:35.171Z,98387.47
2022-09-30T06:26:02.639Z,98388.63
2022-09-30T06:28:29.368Z,98379.72
2022-09-30T06:30:56.242Z,98369.97
2022-09-30T06:33:23.125Z,98389.66
2022-09-30T06:35:50.764Z,98402.91
2022-09-30T06:38:18.068Z,98397.69
2022-09-30T06:40:46.050Z,98398.72
2022-09-30T06:43:13.512Z,98391.47
2022-09-30T06:45:40.349Z,98402.91
2022-09-30T06:48:09.269Z,98383.91
2022-09-30T06:50:36.598Z,98407.59
2022-09-30T06:53:06.397Z,98398.19
2022-09-30T06:55:34.183Z,98412.81
2022-09-30T06:58:01.323Z,98410.28
2022-09-30T07:00:29.141Z,98376.69
2022-09-30T07:02:56.897Z,98422.34
2022-09-30T07:05:25.847Z,98417.00
2022-09-30T07:07:53.905Z,98421.72
2022-09-30T07:10:21.069Z,98404.56
2022-09-30T07:12:54.323Z,98405.56
2022-09-30T07:15:23.405Z,98410.44
2022-09-30T07:17:56.830Z,98403.56
2022-09-30T07:20:27.733Z,98428.03
2022-09-30T07:22:55.622Z,98407.09
2022-09-30T07:25:22.347Z,98392.50
2022-09-30T07:27:49.089Z,98426.34
2022-09-30T07:30:25.836Z,98431.19
2022-09-30T07:32:53.977Z,98439.38
2022-09-30T07:35:20.879Z,98439.69
2022-09-30T07:37:47.837Z,98400.63
2022-09-30T07:40:15.385Z,98437.38
2022-09-30T07:42:46.001Z,98459.03
2022-09-30T07:45:17.216Z,98459.69
2022-09-30T07:47:44.189Z,98466.91
2022-09-30T07:50:15.581Z,98467.53
2022-09-30T07:52:42.331Z,98476.19
2022-09-30T07:55:09.042Z,98463.53
2022-09-30T07:57:35.983Z,98461.22
2022-09-30T08:00:17.313Z,98474.25
2022-09-30T08:02:49.721Z,98488.84
2022-09-30T08:05:16.447Z,98485.78
2022-09-30T08:07:43.152Z,98466.34
2022-09-30T08:10:10.304Z,98500.56
2022-09-30T08:12:37.564Z,98502.88
2022-09-30T08:15:06.292Z,98497.19
2022-09-30T08:17:33.276Z,98509.75
2022-09-30T08:20:00.174Z,98506.63
2022-09-30T08:22:28.313Z,98478.97
2022-09-30T08:24:55.035Z,98505.97
2022-09-30T08:27:21.967Z,98490.41
2022-09-30T08:29:57.605Z,98464.22
2022-09-30T08:32:32.654Z,98469.47
2022-09-30T08:34:59.305Z,98502.38
2022-09-30T08:37:26.117Z,98506.56
2022-09-30T08:39:52.836Z,98519.31
2022-09-30T08:42:43.781Z,98483.88
2022-09-30T08:45:36.210Z,98520.84
2022-09-30T08:48:43.297Z,98529.06
2022-09-30T08:51:29.223Z,98533.88
2022-09-30T08:53:58.817Z,98516.72
2022-09-30T08:56:31.272Z,98540.94
2022-09-30T08:59:36.247Z,98544.31
2022-09-30T09:02:17.394Z,98544.84
2022-09-30T09:04:45.449Z,98522.50
2022-09-30T09:07:36.843Z,98544.13
2022-09-30T09:10:18.813Z,98538.66
2022-09-30T09:13:08.585Z,98545.59
2022-09-30T09:15:38.247Z,98554.00
2022-09-30T09:18:26.364Z,98551.88
2022-09-30T09:21:09.579Z,98552.06
2022-09-30T09:23:36.644Z,98541.59
2022-09-30T09:26:05.231Z,98539.72
2022-09-30T09:28:37.199Z,98547.34
2022-09-30T09:31:04.768Z,98507.78
2022-09-30T09:33:36.966Z,98546.91
2022-09-30T09:36:17.642Z,98561.13
2022-09-30T09:39:15.201Z,98564.00
2022-09-30T09:41:57.020Z,98565.03
2022-09-30T09:44:29.408Z,98569.78
2022-09-30T09:47:14.216Z,98572.25
2022-09-30T09:49:44.833Z,98559.72
2022-09-30T09:52:12.666Z,98579.22
2022-09-30T09:54:43.843Z,98583.66
2022-09-30T09:57:12.724Z,98585.34
2022-09-30T09:59:56.496Z,98583.34
2022-09-30T10:02:32.049Z,98541.44
2022-09-30T10:05:03.833Z,98603.00
2022-09-30T10:07:34.214Z,98595.94
2022-09-30T10:10:19.606Z,98602.63
2022-09-30T10:12:49.575Z,98612.75
2022-09-30T10:15:22.443Z,98606.53
2022-09-30T10:17:57.852Z,98604.59
2022-09-30T10:20:31.916Z,98613.78
2022-09-30T10:23:08.332Z,98617.00
2022-09-30T10:25:35.368Z,98608.22
2022-09-30T10:28:19.363Z,98616.97
2022-09-30T10:31:09.281Z,98613.88
2022-09-30T10:33:47.097Z,98611.50
2022-09-30T10:36:21.602Z,98606.09
2022-09-30T10:39:09.245Z,98613.84
2022-09-30T10:41:38.486Z,98615.34
2022-09-30T10:44:13.210Z,98620.22
2022-09-30T10:46:42.010Z,98575.13
2022-09-30T10:49:27.521Z,98613.81
2022-09-30T10:51:56.160Z,98625.59
2022-09-30T10:54:53.977Z,98629.94
2022-09-30T10:57:29.984Z,98615.72
2022-09-30T11:00:01.591Z,98603.50
2022-09-30T11:02:40.824Z,98639.59
2022-09-30T11:05:19.520Z,98640.78
2022-09-30T11:08:04.938Z,98644.44
2022-09-30T11:11:08.834Z,98642.47
2022-09-30T11:13:57.300Z,98635.41
2022-09-30T11:16:32.419Z,98645.16
2022-09-30T11:19:10.866Z,98644.22
2022-09-30T11:22:12.418Z,98631.72
2022-09-30T11:24:43.987Z,98648.53
2022-09-30T11:27:43.160Z,98641.84
2022-09-30T11:30:27.303Z,98643.50
2022-09-30T11:33:29.097Z,98668.22
2022-09-30T11:36:14.094Z,98676.03
2022-09-30T11:38:43.734Z,98670.44
2022-09-30T11:41:20.576Z,98669.06
2022-09-30T11:44:00.444Z,98664.63
2022-09-30T11:46:27.209Z,98655.34
2022-09-30T11:49:09.125Z,98660.41
2022-09-30T11:52:02.033Z,98648.44
2022-09-30T11:54:52.679Z,98664.81
2022-09-30T11:57:55.844Z,98666.75
2022-09-30T12:00:23.026Z,98666.22
2022-09-30T12:03:20.526Z,98681.88
2022-09-30T12:05:53.351Z,98678.31
2022-09-30T12:08:50.542Z,98662.63
2022-09-30T12:11:31.325Z,98656.66
2022-09-30T12:14:04.904Z,98665.78
2022-09-30T12:16:35.655Z,98620.81
2022-09-30T12:19:15.668Z,98616.47
2022-09-30T12:22:05.832Z,98662.50
2022-09-30T12:24:47.504Z,98660.72
2022-09-30T12:27:25.786Z,98651.28
2022-09-30T12:30:17.897Z,98661.94
2022-09-30T12:33:03.782Z,98647.38
2022-09-30T12:35:38.497Z,98610.69
2022-09-30T12:38:43.573Z,98648.50
2022-09-30T12:41:22.337Z,98647.06
2022-09-30T12:49:41.273Z,98643.13
2022-09-30T12:52:15.612Z,98638.34
2022-09-30T12:54:57.089Z,98635.75
2022-09-30T12:57:31.131Z,98627.38
2022-09-30T13:00:07.949Z,98649.63
2022-09-30T13:02:40.456Z,98652.56
2022-09-30T13:05:32.213Z,98657.03
2022-09-30T13:08:04.865Z,98655.03
2022-09-30T13:10:45.366Z,98647.75
2022-09-30T13:13:31.910Z,98654.88
2022-09-30T13:16:03.805Z,98658.03
2022-09-30T13:18:30.684Z,98650.59
2022-09-30T13:21:18.464Z,98655.91
2022-09-30T13:23:53.533Z,98646.13
2022-09-30T13:26:23.654Z,98649.63
2022-09-30T13:28:52.475Z,98604.72
2022-09-30T13:31:21.726Z,98642.47
2022-09-30T13:34:06.631Z,98635.84
2022-09-30T13:36:57.981Z,98637.69
2022-09-30T13:39:45.914Z,98632.09
2022-09-30T13:42:18.056Z,98626.31
2022-09-30T13:45:13.736Z,98628.88
2022-09-30T13:47:44.912Z,98641.81
2022-09-30T13:50:50.852Z,98645.63
2022-09-30T13:53:27.742Z,98628.44
2022-09-30T13:55:56.037Z,98637.03
2022-09-30T13:58:43.593Z,98637.66
2022-09-30T14:01:48.816Z,98637.28
2022-09-30T14:04:47.558Z,98638.13
2022-09-30T14:07:38.257Z,98638.09
2022-09-30T14:10:51.292Z,98637.25
2022-09-30T14:13:27.937Z,98643.09
2022-09-30T14:16:37.316Z,98647.50
2022-09-30T14:19:10.237Z,98640.31
2022-09-30T14:21:39.412Z,98638.72
2022-09-30T14:24:37.649Z,98651.41
2022-09-30T14:27:15.875Z,98649.47
2022-09-30T14:30:03.757Z,98646.91
2022-09-30T14:32:39.912Z,98619.47
2022-09-30T14:35:09.365Z,98638.53
2022-09-30T14:37:42.072Z,98615.81
2022-09-30T14:40:16.413Z,98645.81
2022-09-30T14:42:45.581Z,98634.19
2022-09-30T14:45:26.628Z,98605.25
2022-09-30T14:47:58.346Z,98592.97
2022-09-30T14:50:28.901Z,98608.28
2022-09-30T14:53:00.691Z,98617.47
2022-09-30T14:55:30.658Z,98621.75
2022-09-30T14:58:31.397Z,98632.47
2022-09-30T15:01:00.985Z,98627.81
2022-09-30T15:03:29.791Z,98575.41
2022-09-30T15:05:58.303Z,98620.34
2022-09-30T15:08:25.323Z,98643.09
2022-09-30T15:10:54.905Z,98617.84
2022-09-30T15:13:32.010Z,98633.94
2022-09-30T15:15:59.430Z,98585.75
2022-09-30T15:18:29.151Z,98642.94
2022-09-30T15:20:59.444Z,98640.16
2022-09-30T15:23:30.333Z,98610.38
2022-09-30T15:25:57.973Z,98624.66
2022-09-30T15:28:25.254Z,98631.09
2022-09-30T15:30:54.316Z,98637.91
2022-09-30T15:33:28.227Z,98633.09
2022-09-30T15:36:27.540Z,98623.88
2022-09-30T15:38:54.443Z,98642.66
2022-09-30T15:41:21.370Z,98637.41
2022-09-30T15:43:51.297Z,98653.09
2022-09-30T15:46:21.683Z,98644.88
2022-09-30T15:48:49.353Z,98653.25
2022-09-30T15:51:30.207Z,98643.31
2022-09-30T15:54:02.469Z,98608.34
2022-09-30T15:56:35.386Z,98659.06
2022-09-30T15:59:11.325Z,98662.06
2022-09-30T16:01:41.322Z,98656.25
2022-09-30T16:04:15.559Z,98672.91
2022-09-30T16:06:45.055Z,98671.25
2022-09-30T16:09:24.143Z,98677.25
2022-09-30T16:12:10.152Z,98677.88
2022-09-30T16:14:50.148Z,98673.22
2022-09-30T16:17:23.854Z,98688.94
2022-09-30T16:19:57.951Z,98680.56
2022-09-30T16:22:35.581Z,98686.97
2022-09-30T16:25:28.931Z,98688.03
2022-09-30T16:28:00.873Z,98685.88
2022-09-30T16:30:30.599Z,98683.31
2022-09-30T16:33:03.257Z,98671.72
2022-09-30T16:35:30.142Z,98689.31
2022-09-30T16:38:07.472Z,98689.59
2022-09-30T16:40:39.289Z,98691.53
2022-09-30T16:43:07.878Z,98686.84
2022-09-30T16:45:35.720Z,98688.09
2022-09-30T16:48:06.082Z,98697.03
2022-09-30T16:50:42.077Z,98697.38
2022-09-30T16:53:10.737Z,98668.44
2022-09-30T16:55:37.778Z,98689.50
2022-09-30T16:58:07.368Z,98702.19
2022-09-30T17:00:34.614Z,98690.78
2022-09-30T17:03:01.508Z,98700.81
2022-09-30T17:05:28.306Z,98701.22
2022-09-30T17:08:01.855Z,98705.69
2022-09-30T17:10:35.348Z,98712.13
2022-09-30T17:13:04.210Z,98699.50
2022-09-30T17:15:33.726Z,98709.63
2022-09-30T17:18:04.238Z,98699.41
2022-09-30T17:20:31.110Z,98656.03
2022-09-30T17:22:57.830Z,98695.31
2022-09-30T17:25:24.725Z,98700.16
2022-09-30T17:27:51.598Z,98715.56
2022-09-30T17:30:19.679Z,98723.25
2022-09-30T17:32:47.789Z,98734.59
2022-09-30T17:35:15.265Z,98736.16
2022-09-30T17:37:45.391Z,98732.09
2022-09-30T17:40:33.911Z,98732.78
2022-09-30T17:43:13.184Z,98738.28
2022-09-30T17:45:42.884Z,98723.00
2022-09-30T17:48:11.258Z,98747.44
2022-09-30T17:50:39.477Z,98740.25
2022-09-30T17:53:07.864Z,98744.31
2022-09-30T17:55:35.692Z,98748.88
2022-09-30T17:58:05.319Z,98709.16
2022-09-30T18:00:33.703Z,98749.34
2022-09-30T18:03:01.761Z,98749.00
2022-09-30T18:05:31.389Z,98745.50
2022-09-30T18:08:02.811Z,98737.63
2022-09-30T18:10:31.613Z,98736.25
2022-09-30T18:12:59.818Z,98746.72
2022-09-30T18:15:27.577Z,98738.50
2022-09-30T18:17:54.352Z,98740.69
2022-09-30T18:20:24.849Z,98731.09
2022-09-30T18:22:52.882Z,98725.53
2022-09-30T18:25:30.545Z,98742.00
2022-09-30T18:27:58.618Z,98744.88
2022-09-30T18:30:26.917Z,98753.16
2022-09-30T18:32:55.318Z,98743.44
2022-09-30T18:35:25.015Z,98730.16
2022-09-30T18:40:36.781Z,98728.31
2022-09-30T18:43:06.238Z,98735.19
2022-09-30T18:45:42.696Z,98737.72
2022-09-30T18:48:11.882Z,98741.25
2022-09-30T18:50:43.121Z,98729.31
2022-09-30T18:53:15.154Z,98736.88
2022-09-30T18:55:45.163Z,98740.06
2022-09-30T18:58:13.882Z,98733.84
2022-09-30T19:00:42.669Z,98719.25
2022-09-30T19:03:17.753Z,98725.09
2022-09-30T19:05:45.418Z,98729.19
2022-09-30T19:08:13.005Z,98734.38
2022-09-30T19:10:42.330Z,98731.03
2022-09-30T19:13:18.297Z,98720.09
2022-09-30T19:15:47.140Z,98698.22
2022-09-30T19:18:14.699Z,98733.69
2022-09-30T19:20:43.007Z,98722.63
2022-09-30T19:23:11.508Z,98704.63
2022-09-30T19:25:44.831Z,98668.47
2022-09-30T19:28:17.570Z,98726.97
2022-09-30T19:30:45.625Z,98726.47
2022-09-30T19:33:13.729Z,98728.84
2022-09-30T19:35:41.693Z,98689.00
2022-09-30T19:38:09.600Z,98733.38
2022-09-30T19:40:37.600Z,98726.97
2022-09-30T19:43:04.894Z,98686.28
2022-09-30T19:45:32.698Z,98737.22
2022-09-30T19:48:03.622Z,98689.13
2022-09-30T19:50:31.158Z,98731.69
2022-09-30T19:53:01.559Z,98721.75
2022-09-30T19:55:29.065Z,98731.88
2022-09-30T19:57:58.302Z,98740.59
2022-09-30T20:00:34.693Z,98739.75
2022-09-30T20:03:02.282Z,98720.75
2022-09-30T20:05:30.045Z,98722.94
2022-09-30T20:07:59.873Z,98730.34
2022-09-30T20:10:27.545Z,98705.63
2022-09-30T20:12:54.567Z,98731.00
2022-09-30T20:15:45.275Z,98672.34
2022-09-30T20:18:13.635Z,98714.72
2022-09-30T20:20:45.878Z,98716.22
2022-09-30T20:23:15.977Z,98697.38
2022-09-30T20:25:42.776Z,98695.84
2022-09-30T20:28:09.728Z,98664.59
2022-09-30T20:30:48.212Z,98693.84
2022-09-30T20:33:20.236Z,98660.06
2022-09-30T20:35:48.330Z,98706.28
2022-09-30T20:38:25.053Z,98707.97
2022-09-30T20:40:57.673Z,98709.66
2022-09-30T20:43:30.169Z,98714.50
2022-09-30T20:46:01.932Z,98698.03
2022-09-30T20:48:33.893Z,98716.69
2022-09-30T20:51:07.993Z,98711.16
2022-09-30T20:53:36.661Z,98713.16
2022-09-30T20:56:03.965Z,98692.66
2022-09-30T20:58:30.750Z,98637.63
2022-09-30T21:01:05.520Z,98700.03
2022-09-30T21:03:37.334Z,98677.53
2022-09-30T21:06:07.747Z,98702.91
2022-09-30T21:08:43.223Z,98710.78
2022-09-30T21:11:11.571Z,98719.38
2022-09-30T21:13:45.622Z,98727.09
2022-09-30T21:16:16.047Z,98735.91
2022-09-30T21:18:44.347Z,98741.25
2022-09-30T21:21:13.249Z,98742.41
2022-09-30T21:23:40.893Z,98739.88
2022-09-30T21:26:13.212Z,98747.94
2022-09-30T21:28:40.170Z,98744.63
2022-09-30T21:31:12.181Z,98745.78
2022-09-30T21:33:39.213Z,98758.72
2022-09-30T21:36:06.958Z,98738.91
2022-09-30T21:38:34.827Z,98754.69
2022-09-30T21:41:04.048Z,98748.06
2022-09-30T21:43:38.263Z,98731.38
2022-09-30T21:46:10.866Z,98747.59
2022-09-30T21:48:46.486Z,98703.31
2022-09-30T21:51:14.015Z,98743.91
2022-09-30T21:53:41.718Z,98742.19
2022-09-30T21:56:11.706Z,98686.13
2022-09-30T21:58:38.477Z,98745.41
2022-09-30T22:01:07.171Z,98740.00
2022-09-30T22:03:38.568Z,98714.56
2022-09-30T22:06:08.206Z,98740.50
2022-09-30T22:08:40.324Z,98774.84
2022-09-30T22:11:11.376Z,98776.34
2022-09-30T22:13:40.925Z,98772.13
2022-09-30T22:16:08.766Z,98765.56
2022-09-30T22:18:36.029Z,98773.97
2022-09-30T22:21:14.906Z,98767.28
2022-09-30T22:23:41.791Z,98762.94
2022-09-30T22:26:14.714Z,98771.69
2022-09-30T22:28:41.523Z,98763.59
2022-09-30T22:31:19.740Z,98767.13
2022-09-30T22:34:13.834Z,98775.53
2022-09-30T22:36:59.156Z,98765.25
2022-09-30T22:39:26.642Z,98781.88
2022-09-30T22:41:55.505Z,98782.41
2022-09-30T22:44:25.672Z,98781.88
2022-09-30T22:46:53.533Z,98771.63
2022-09-30T22:49:20.290Z,98772.97
2022-09-30T22:51:53.607Z,98780.19
2022-09-30T22:54:21.109Z,98776.41
2022-09-30T22:56:50.481Z,98784.78
2022-09-30T22:59:24.303Z,98764.56
2022-09-30T23:03:44.978Z,98748.19
2022-09-30T23:06:11.940Z,98806.25
2022-09-30T23:08:41.955Z,98796.88
2022-09-30T23:11:10.078Z,98799.06
2022-09-30T23:13:37.936Z,98794.31
2022-09-30T23:16:06.294Z,98800.53
2022-09-30T23:18:34.195Z,98792.81
2022-09-30T23:21:06.303Z,98807.97
2022-09-30T23:23:34.222Z,98806.81
2022-09-30T23:26:06.023Z,98812.03
2022-09-30T23:28:33.146Z,98802.28
2022-09-30T23:31:02.087Z,98808.13
2022-09-30T23:33:29.734Z,98812.81
2022-09-30T23:35:56.842Z,98788.56
2022-09-30T23:38:27.008Z,98826.09
2022-09-30T23:40:59.382Z,98827.75
2022-09-30T23:43:31.270Z,98817.31
2022-09-30T23:45:58.806Z,98825.38
2022-09-30T23:48:26.276Z,98828.59
2022-09-30T23:50:53.954Z,98819.53
2022-09-30T23:53:23.000Z,98805.75
2022-09-30T23:55:55.369Z,98804.75
2022-09-30T23:58:23.520Z,98802.22
